Time;durP1;ratioP1;P1;durP2;ratioP2;P2;SDS_P1;SDS_P2;PMS_P1;PMS_P2;Temp;Humidity;BMP_temperature;BMP_pressure;BME280_temperature;BME280_humidity;BME280_pressure;Samples;Min_cycle;Max_cycle;Signal;HPM_P1;HPM_P2
2022/12/30 00:01:19;;;;;;;0.80;0.80;;;;;;;;;;4994899;28;20549;-77
2022/12/30 00:03:45;;;;;;;0.70;0.70;;;;;;;;;;4994579;28;20203;-77
2022/12/30 00:06:14;;;;;;;0.70;0.70;;;;;;;;;;4994976;28;20285;-77
2022/12/30 00:08:46;;;;;;;0.63;0.63;;;;;;;;;;4994869;28;20379;-78
2022/12/30 00:11:23;;;;;;;0.70;0.70;;;;;;;;;;4994608;28;20647;-78
2022/12/30 00:33:21;;;;;;;0.63;0.63;;;;;;;;;;5003744;28;20204;-77
2022/12/30 00:35:47;;;;;;;0.67;0.67;;;;;;;;;;4994633;28;20181;-77
2022/12/30 00:38:13;;;;;;;0.70;0.70;;;;;;;;;;4994385;28;20223;-77
2022/12/30 00:43:07;;;;;;;0.67;0.67;;;;;;;;;;4994226;28;20260;-77
2022/12/30 00:43:25;;;;;;;0.80;0.80;;;;;;;;;;4993472;28;20243;-78
2022/12/30 00:45:53;;;;;;;0.70;0.70;;;;;;;;;;4994339;28;20181;-78
2022/12/30 00:56:33;;;;;;;0.70;0.70;;;;;;;;;;4995624;28;20525;-78
2022/12/30 00:58:59;;;;;;;0.80;0.80;;;;;;;;;;4995482;28;20228;-78
2022/12/30 01:01:25;;;;;;;0.70;0.70;;;;;;;;;;4994560;28;20177;-79
2022/12/30 01:03:51;;;;;;;0.70;0.70;;;;;;;;;;4994134;28;20236;-78
2022/12/30 01:06:17;;;;;;;0.70;0.70;;;;;;;;;;4994194;28;20181;-78
2022/12/30 01:08:42;;;;;;;0.80;0.80;;;;;;;;;;4994055;28;20181;-79
2022/12/30 01:11:09;;;;;;;0.70;0.70;;;;;;;;;;4993605;28;20486;-78
2022/12/30 01:13:35;;;;;;;0.70;0.70;;;;;;;;;;4993936;28;20565;-79
2022/12/30 01:16:09;;;;;;;0.70;0.70;;;;;;;;;;4994345;28;20273;-79
2022/12/30 01:18:35;;;;;;;0.80;0.80;;;;;;;;;;4994150;28;20239;-78
2022/12/30 01:21:01;;;;;;;0.70;0.70;;;;;;;;;;4994641;28;20551;-78
2022/12/30 01:23:27;;;;;;;0.60;0.60;;;;;;;;;;4993894;28;20212;-78
2022/12/30 01:25:53;;;;;;;0.70;0.70;;;;;;;;;;4994372;28;20193;-78
2022/12/30 01:28:19;;;;;;;0.60;0.60;;;;;;;;;;4994943;28;20180;-78
2022/12/30 01:30:45;;;;;;;0.70;0.70;;;;;;;;;;4993700;28;20211;-78
2022/12/30 01:33:11;;;;;;;0.70;0.70;;;;;;;;;;4994638;28;20209;-78
2022/12/30 01:35:37;;;;;;;0.70;0.70;;;;;;;;;;4996101;28;20608;-78
2022/12/30 01:38:03;;;;;;;0.73;0.73;;;;;;;;;;4996175;28;20617;-80
2022/12/30 01:40:29;;;;;;;0.70;0.70;;;;;;;;;;5000465;28;20193;-78
2022/12/30 01:42:55;;;;;;;0.80;0.80;;;;;;;;;;5001294;28;20276;-79
2022/12/30 01:45:22;;;;;;;0.70;0.70;;;;;;;;;;4996381;28;20177;-79
2022/12/30 01:47:48;;;;;;;0.70;0.70;;;;;;;;;;4996009;28;20189;-80
2022/12/30 01:50:14;;;;;;;0.67;0.67;;;;;;;;;;4996005;28;20502;-79
2022/12/30 01:52:43;;;;;;;0.70;0.70;;;;;;;;;;4994535;28;20254;-78
2022/12/30 01:55:12;;;;;;;0.70;0.70;;;;;;;;;;4995295;28;20188;-78
2022/12/30 01:57:39;;;;;;;0.70;0.70;;;;;;;;;;4997780;28;20229;-80
2022/12/30 02:00:07;;;;;;;0.70;0.70;;;;;;;;;;5006999;28;20173;-81
2022/12/30 02:02:33;;;;;;;0.60;0.60;;;;;;;;;;5001596;28;20207;-78
2022/12/30 02:05:00;;;;;;;0.70;0.70;;;;;;;;;;4997787;28;20197;-78
2022/12/30 02:07:28;;;;;;;0.70;0.70;;;;;;;;;;4996689;28;20205;-78
2022/12/30 02:09:55;;;;;;;0.63;0.63;;;;;;;;;;4996493;28;20177;-77
2022/12/30 02:12:21;;;;;;;0.70;0.70;;;;;;;;;;4995179;28;20189;-79
2022/12/30 02:14:47;;;;;;;0.60;0.60;;;;;;;;;;4994939;28;20648;-78
2022/12/30 02:17:13;;;;;;;0.63;0.63;;;;;;;;;;4995891;28;20181;-77
2022/12/30 02:19:57;;;;;;;0.60;0.60;;;;;;;;;;4995413;28;20665;-77
2022/12/30 02:22:42;;;;;;;0.80;0.80;;;;;;;;;;4994252;28;20173;-78
2022/12/30 02:25:33;;;;;;;0.70;0.70;;;;;;;;;;4994942;28;20236;-78
2022/12/30 02:28:13;;;;;;;0.60;0.60;;;;;;;;;;4992596;28;20232;-78
2022/12/30 02:30:58;;;;;;;0.70;0.70;;;;;;;;;;4992474;28;20264;-78
2022/12/30 02:33:24;;;;;;;0.60;0.60;;;;;;;;;;4991852;28;20193;-78
2022/12/30 02:36:09;;;;;;;0.70;0.70;;;;;;;;;;4995176;28;20260;-77
2022/12/30 02:38:39;;;;;;;0.70;0.70;;;;;;;;;;4995008;28;20216;-79
2022/12/30 02:46:48;;;;;;;0.60;0.60;;;;;;;;;;4998908;28;20188;-79
2022/12/30 02:49:16;;;;;;;0.70;0.70;;;;;;;;;;4999926;28;20177;-78
2022/12/30 02:54:28;;;;;;;0.73;0.73;;;;;;;;;;4995354;28;20199;-78
2022/12/30 02:56:54;;;;;;;0.73;0.73;;;;;;;;;;4994649;28;20268;-78
2022/12/30 03:05:25;;;;;;;0.70;0.70;;;;;;;;;;4993315;28;20255;-79
2022/12/30 03:07:57;;;;;;;0.70;0.70;;;;;;;;;;4994158;28;20187;-78
2022/12/30 03:13:34;;;;;;;0.77;0.77;;;;;;;;;;4993873;28;20570;-77
2022/12/30 03:16:06;;;;;;;0.70;0.70;;;;;;;;;;4993719;28;20255;-80
2022/12/30 03:18:33;;;;;;;0.70;0.70;;;;;;;;;;4993374;28;20288;-78
2022/12/30 03:21:00;;;;;;;0.70;0.70;;;;;;;;;;4993465;28;20851;-77
2022/12/30 03:28:58;;;;;;;0.70;0.70;;;;;;;;;;4997274;28;20188;-79
2022/12/30 03:31:24;;;;;;;0.70;0.70;;;;;;;;;;5002272;28;20177;-79
2022/12/30 03:33:50;;;;;;;0.80;0.80;;;;;;;;;;5004098;28;20200;-78
2022/12/30 03:36:16;;;;;;;0.80;0.80;;;;;;;;;;5008206;28;20395;-78
2022/12/30 03:38:44;;;;;;;0.77;0.77;;;;;;;;;;5006357;28;20272;-78
2022/12/30 03:41:11;;;;;;;0.80;0.80;;;;;;;;;;5006989;28;20669;-78
2022/12/30 03:43:37;;;;;;;0.70;0.70;;;;;;;;;;5005576;28;20212;-78
2022/12/30 03:46:03;;;;;;;0.80;0.80;;;;;;;;;;5007016;28;20173;-78
2022/12/30 03:48:29;;;;;;;0.80;0.80;;;;;;;;;;5005843;28;20181;-78
2022/12/30 03:50:55;;;;;;;0.83;0.83;;;;;;;;;;5005638;28;20177;-78
2022/12/30 03:53:21;;;;;;;0.70;0.70;;;;;;;;;;5005966;28;20220;-78
2022/12/30 03:55:47;;;;;;;0.70;0.70;;;;;;;;;;5005069;28;20177;-78
2022/12/30 03:58:13;;;;;;;0.80;0.80;;;;;;;;;;5003106;28;20239;-78
2022/12/30 04:00:39;;;;;;;0.80;0.80;;;;;;;;;;5002273;28;20177;-79
2022/12/30 04:03:05;;;;;;;0.70;0.70;;;;;;;;;;4995182;28;20345;-77
2022/12/30 04:05:31;;;;;;;0.77;0.77;;;;;;;;;;4994916;28;20264;-77
2022/12/30 04:07:57;;;;;;;0.70;0.70;;;;;;;;;;4995064;28;20185;-77
2022/12/30 04:10:23;;;;;;;0.70;0.70;;;;;;;;;;4996126;28;20204;-78
2022/12/30 04:12:49;;;;;;;0.70;0.70;;;;;;;;;;4997317;28;20261;-78
2022/12/30 04:15:15;;;;;;;0.70;0.70;;;;;;;;;;4996801;28;20178;-78
2022/12/30 04:17:40;;;;;;;0.70;0.70;;;;;;;;;;4999427;28;20188;-78
2022/12/30 04:20:07;;;;;;;0.83;0.83;;;;;;;;;;5002380;28;20241;-78
2022/12/30 04:22:32;;;;;;;0.70;0.70;;;;;;;;;;5001911;28;20173;-79
2022/12/30 04:24:58;;;;;;;0.70;0.70;;;;;;;;;;5003250;28;20534;-78
2022/12/30 04:27:25;;;;;;;0.80;0.80;;;;;;;;;;4995590;28;20589;-78
2022/12/30 04:29:51;;;;;;;0.60;0.60;;;;;;;;;;4995274;28;20593;-78
2022/12/30 04:32:16;;;;;;;0.70;0.70;;;;;;;;;;4994992;28;20177;-79
2022/12/30 04:34:42;;;;;;;0.67;0.67;;;;;;;;;;4995418;28;20276;-78
2022/12/30 04:37:08;;;;;;;0.70;0.70;;;;;;;;;;4996033;28;20184;-77
2022/12/30 04:39:34;;;;;;;0.80;0.80;;;;;;;;;;4996010;28;20320;-78
2022/12/30 04:42:00;;;;;;;0.80;0.80;;;;;;;;;;4994966;28;20177;-79
2022/12/30 04:44:26;;;;;;;0.80;0.80;;;;;;;;;;4994633;28;20205;-78
2022/12/30 04:46:52;;;;;;;0.80;0.80;;;;;;;;;;4996552;28;20180;-78
2022/12/30 04:49:18;;;;;;;0.80;0.80;;;;;;;;;;4996828;28;20638;-79
2022/12/30 04:51:44;;;;;;;0.80;0.80;;;;;;;;;;4996668;28;20634;-79
2022/12/30 04:54:10;;;;;;;0.70;0.70;;;;;;;;;;4996166;28;20678;-79
2022/12/30 04:56:36;;;;;;;0.63;0.63;;;;;;;;;;4996730;28;20177;-79
2022/12/30 04:59:02;;;;;;;0.70;0.70;;;;;;;;;;4997141;28;20244;-78
2022/12/30 05:01:28;;;;;;;0.90;0.90;;;;;;;;;;4996251;28;20184;-78
2022/12/30 05:03:54;;;;;;;0.70;0.70;;;;;;;;;;4995791;28;20212;-77
2022/12/30 05:06:20;;;;;;;0.80;0.80;;;;;;;;;;4996549;28;20611;-78
2022/12/30 05:08:46;;;;;;;0.70;0.70;;;;;;;;;;4996467;28;20527;-78
2022/12/30 05:11:12;;;;;;;0.80;0.80;;;;;;;;;;4995700;28;20548;-79
2022/12/30 05:13:38;;;;;;;0.80;0.80;;;;;;;;;;4995428;28;20189;-77
2022/12/30 05:16:04;;;;;;;0.77;0.77;;;;;;;;;;4996773;28;20177;-79
2022/12/30 05:18:30;;;;;;;0.80;0.80;;;;;;;;;;4998620;28;20217;-77
2022/12/30 05:20:56;;;;;;;0.87;0.87;;;;;;;;;;4997207;28;20261;-78
2022/12/30 05:26:16;;;;;;;0.70;0.70;;;;;;;;;;4998152;28;20844;-78
2022/12/30 05:28:43;;;;;;;0.70;0.70;;;;;;;;;;4997707;28;20180;-79
2022/12/30 05:31:09;;;;;;;0.60;0.60;;;;;;;;;;4997260;28;20331;-79
2022/12/30 05:33:35;;;;;;;0.70;0.70;;;;;;;;;;4997177;28;20645;-79
2022/12/30 05:36:01;;;;;;;0.80;0.80;;;;;;;;;;5000083;28;20188;-79
2022/12/30 05:38:27;;;;;;;0.70;0.70;;;;;;;;;;4999440;28;20303;-78
2022/12/30 05:40:53;;;;;;;0.80;0.80;;;;;;;;;;4998668;28;20335;-78
2022/12/30 05:43:19;;;;;;;0.70;0.70;;;;;;;;;;4995479;28;20267;-77
2022/12/30 05:45:45;;;;;;;0.70;0.70;;;;;;;;;;4996437;28;20247;-79
2022/12/30 05:48:11;;;;;;;0.77;0.77;;;;;;;;;;4997703;28;20268;-79
2022/12/30 05:50:37;;;;;;;0.80;0.80;;;;;;;;;;4996691;28;20203;-79
2022/12/30 05:53:03;;;;;;;0.80;0.80;;;;;;;;;;4995289;28;20201;-79
2022/12/30 05:55:29;;;;;;;0.80;0.80;;;;;;;;;;4995801;28;20189;-79
2022/12/30 05:57:56;;;;;;;0.87;0.87;;;;;;;;;;5006391;28;20173;-79
2022/12/30 06:00:22;;;;;;;0.83;0.83;;;;;;;;;;5006285;28;20183;-79
2022/12/30 06:02:49;;;;;;;0.80;0.80;;;;;;;;;;5004075;28;20245;-78
2022/12/30 06:05:15;;;;;;;0.80;0.80;;;;;;;;;;4995556;28;20173;-78
2022/12/30 06:07:41;;;;;;;0.80;0.80;;;;;;;;;;4995424;28;20181;-79
2022/12/30 06:10:07;;;;;;;0.80;0.80;;;;;;;;;;4994491;28;20704;-79
2022/12/30 06:12:33;;;;;;;0.70;0.70;;;;;;;;;;4993988;28;20634;-79
2022/12/30 06:14:59;;;;;;;0.70;0.70;;;;;;;;;;4996123;28;20205;-82
2022/12/30 06:17:25;;;;;;;0.90;0.90;;;;;;;;;;4997289;28;20178;-79
2022/12/30 06:19:51;;;;;;;0.90;0.90;;;;;;;;;;5009203;28;20224;-79
2022/12/30 06:22:17;;;;;;;0.80;0.80;;;;;;;;;;5008095;28;20245;-78
2022/12/30 06:24:43;;;;;;;0.80;0.80;;;;;;;;;;4996179;28;20200;-79
2022/12/30 06:27:09;;;;;;;0.80;0.80;;;;;;;;;;4996027;28;20193;-80
2022/12/30 06:29:34;;;;;;;0.80;0.80;;;;;;;;;;4996742;28;20177;-80
2022/12/30 06:32:00;;;;;;;0.70;0.70;;;;;;;;;;4996042;28;20177;-82
2022/12/30 06:34:26;;;;;;;1.00;1.00;;;;;;;;;;4996967;28;20307;-82
2022/12/30 06:36:52;;;;;;;0.90;0.90;;;;;;;;;;5006695;28;20260;-80
2022/12/30 06:39:18;;;;;;;0.90;0.90;;;;;;;;;;5009257;28;20217;-78
2022/12/30 06:41:44;;;;;;;0.90;0.90;;;;;;;;;;4996410;28;20201;-79
2022/12/30 06:44:10;;;;;;;0.80;0.80;;;;;;;;;;4994571;28;20224;-78
2022/12/30 06:46:36;;;;;;;0.80;0.80;;;;;;;;;;4992867;28;20235;-79
2022/12/30 06:49:02;;;;;;;0.70;0.70;;;;;;;;;;4994768;28;20260;-77
2022/12/30 06:51:28;;;;;;;0.80;0.80;;;;;;;;;;4992897;28;20173;-77
2022/12/30 06:53:54;;;;;;;0.70;0.70;;;;;;;;;;4992727;28;20235;-78
2022/12/30 06:56:20;;;;;;;0.70;0.70;;;;;;;;;;4994309;28;20216;-78
2022/12/30 06:58:46;;;;;;;0.90;0.90;;;;;;;;;;5014580;28;20302;-78
2022/12/30 07:01:12;;;;;;;0.80;0.80;;;;;;;;;;5014361;28;20181;-79
2022/12/30 07:03:38;;;;;;;0.90;0.90;;;;;;;;;;5011027;28;20192;-77
2022/12/30 07:06:04;;;;;;;0.90;0.90;;;;;;;;;;5010295;28;20260;-77
2022/12/30 07:08:30;;;;;;;0.90;0.90;;;;;;;;;;5010942;28;20612;-77
2022/12/30 07:10:56;;;;;;;0.90;0.90;;;;;;;;;;5011434;28;20665;-76
2022/12/30 07:13:22;;;;;;;0.73;0.73;;;;;;;;;;5008855;28;20192;-77
2022/12/30 07:15:48;;;;;;;0.90;0.90;;;;;;;;;;5013799;28;20255;-78
2022/12/30 07:18:14;;;;;;;0.90;0.90;;;;;;;;;;5014430;28;20646;-77
2022/12/30 07:20:40;;;;;;;0.50;0.50;;;;;;;;;;5011931;28;21017;-76
2022/12/30 07:23:06;;;;;;;0.80;0.80;;;;;;;;;;5012425;28;20196;-76
2022/12/30 07:25:32;;;;;;;0.80;0.80;;;;;;;;;;5012476;28;20196;-76
2022/12/30 07:28:00;;;;;;;0.80;0.80;;;;;;;;;;5012647;28;20183;-76
2022/12/30 07:30:25;;;;;;;0.90;0.90;;;;;;;;;;5010204;28;20181;-75
2022/12/30 07:32:51;;;;;;;1.00;1.00;;;;;;;;;;5011687;28;20667;-78
2022/12/30 07:35:17;;;;;;;0.80;0.80;;;;;;;;;;5011316;28;20301;-78
2022/12/30 07:37:43;;;;;;;0.90;0.90;;;;;;;;;;5011811;28;20212;-77
2022/12/30 07:40:10;;;;;;;0.80;0.80;;;;;;;;;;5014886;28;20208;-78
2022/12/30 07:42:36;;;;;;;0.70;0.70;;;;;;;;;;5010665;28;20227;-78
2022/12/30 07:45:01;;;;;;;0.80;0.80;;;;;;;;;;5010776;28;20196;-79
2022/12/30 07:47:32;;;;;;;0.70;0.70;;;;;;;;;;5010879;28;20183;-79
2022/12/30 07:49:57;;;;;;;0.80;0.80;;;;;;;;;;5011451;28;20255;-79
2022/12/30 07:52:23;;;;;;;0.80;0.80;;;;;;;;;;5010333;28;20203;-78
2022/12/30 07:54:49;;;;;;;0.70;0.70;;;;;;;;;;5011191;28;20193;-78
2022/12/30 07:57:15;;;;;;;0.80;0.80;;;;;;;;;;5011353;28;20172;-81
2022/12/30 07:59:41;;;;;;;0.60;0.60;;;;;;;;;;5008612;28;20271;-78
2022/12/30 08:02:08;;;;;;;0.60;0.60;;;;;;;;;;5009840;28;20242;-78
2022/12/30 08:04:34;;;;;;;0.60;0.60;;;;;;;;;;5010950;28;20205;-79
2022/12/30 08:07:00;;;;;;;0.57;0.57;;;;;;;;;;5011160;28;20220;-78
2022/12/30 08:09:26;;;;;;;0.60;0.60;;;;;;;;;;5011317;28;20180;-80
2022/12/30 08:11:52;;;;;;;0.50;0.50;;;;;;;;;;5011021;28;20184;-78
2022/12/30 08:14:18;;;;;;;0.50;0.50;;;;;;;;;;5011327;28;20255;-78
2022/12/30 08:16:44;;;;;;;0.40;0.40;;;;;;;;;;5010764;28;20544;-78
2022/12/30 08:19:10;;;;;;;0.50;0.50;;;;;;;;;;5002001;28;20220;-76
2022/12/30 08:21:36;;;;;;;0.50;0.50;;;;;;;;;;5003216;28;20169;-77
2022/12/30 08:24:02;;;;;;;0.50;0.50;;;;;;;;;;5017900;28;20204;-78
2022/12/30 08:26:28;;;;;;;0.40;0.40;;;;;;;;;;5015271;28;20188;-79
2022/12/30 08:28:54;;;;;;;0.60;0.60;;;;;;;;;;5029839;28;20180;-77
2022/12/30 08:31:24;;;;;;;0.50;0.50;;;;;;;;;;5023483;28;20247;-78
2022/12/30 08:33:51;;;;;;;0.47;0.47;;;;;;;;;;5012109;28;20282;-80
2022/12/30 08:36:18;;;;;;;0.40;0.40;;;;;;;;;;5013572;28;20184;-78
2022/12/30 08:38:46;;;;;;;0.40;0.40;;;;;;;;;;5016639;28;20273;-79
2022/12/30 08:41:15;;;;;;;0.40;0.40;;;;;;;;;;5032656;28;20176;-77
2022/12/30 08:48:52;;;;;;;0.50;0.50;;;;;;;;;;5573066;23;20224;-75
2022/12/30 08:51:18;;;;;;;0.50;0.50;;;;;;;;;;4992845;28;20633;-74
2022/12/30 08:53:45;;;;;;;0.37;0.37;;;;;;;;;;4993761;28;20189;-75
2022/12/30 08:56:14;;;;;;;0.40;0.40;;;;;;;;;;4994679;28;20174;-75
2022/12/30 08:58:40;;;;;;;0.40;0.40;;;;;;;;;;4994838;28;20227;-77
2022/12/30 09:01:10;;;;;;;0.43;0.43;;;;;;;;;;4999389;28;20241;-76
2022/12/30 09:03:37;;;;;;;0.37;0.37;;;;;;;;;;4997297;28;20228;-74
2022/12/30 09:06:03;;;;;;;0.30;0.30;;;;;;;;;;4997145;28;20185;-74
2022/12/30 09:08:29;;;;;;;0.40;0.40;;;;;;;;;;4991413;28;20193;-74
2022/12/30 09:10:59;;;;;;;0.40;0.40;;;;;;;;;;4995094;28;20240;-73
2022/12/30 09:13:25;;;;;;;0.40;0.40;;;;;;;;;;4993898;28;20177;-74
2022/12/30 09:15:52;;;;;;;0.40;0.40;;;;;;;;;;4994678;28;20187;-74
2022/12/30 09:18:18;;;;;;;0.40;0.40;;;;;;;;;;4995178;28;20213;-73
2022/12/30 09:20:44;;;;;;;0.40;0.40;;;;;;;;;;4995275;28;20177;-73
2022/12/30 09:23:10;;;;;;;0.40;0.40;;;;;;;;;;4994346;28;20173;-74
2022/12/30 09:25:36;;;;;;;0.40;0.40;;;;;;;;;;4994907;28;20189;-75
2022/12/30 09:28:01;;;;;;;0.40;0.40;;;;;;;;;;4993921;28;20339;-74
2022/12/30 09:30:27;;;;;;;0.57;0.57;;;;;;;;;;4992932;28;20182;-74
2022/12/30 09:32:53;;;;;;;0.33;0.33;;;;;;;;;;4993780;28;20181;-74
2022/12/30 09:35:19;;;;;;;0.50;0.50;;;;;;;;;;4993853;28;20184;-75
2022/12/30 09:37:45;;;;;;;0.50;0.50;;;;;;;;;;4993815;28;20268;-74
2022/12/30 09:40:16;;;;;;;0.37;0.37;;;;;;;;;;4993828;28;20209;-73
2022/12/30 09:45:34;;;;;;;0.40;0.40;;;;;;;;;;4993741;28;20528;-75
2022/12/30 09:48:04;;;;;;;0.40;0.40;;;;;;;;;;4993152;28;20185;-75
2022/12/30 09:50:43;;;;;;;0.30;0.30;;;;;;;;;;4991793;28;20189;-74
2022/12/30 09:53:08;;;;;;;0.40;0.40;;;;;;;;;;4990582;28;20188;-74
2022/12/30 09:55:56;;;;;;;0.40;0.40;;;;;;;;;;4992730;28;20177;-73
2022/12/30 09:58:26;;;;;;;0.40;0.40;;;;;;;;;;4992476;28;20209;-74
2022/12/30 10:00:53;;;;;;;0.40;0.40;;;;;;;;;;4991172;28;20228;-74
2022/12/30 10:03:27;;;;;;;0.50;0.50;;;;;;;;;;4993398;28;20177;-74
2022/12/30 10:06:12;;;;;;;0.50;0.50;;;;;;;;;;4992929;28;20189;-75
2022/12/30 10:08:44;;;;;;;0.30;0.30;;;;;;;;;;4991118;28;20205;-75
2022/12/30 10:11:26;;;;;;;0.37;0.37;;;;;;;;;;4990432;28;20593;-75
2022/12/30 10:13:55;;;;;;;0.40;0.40;;;;;;;;;;4989631;28;20615;-75
2022/12/30 10:16:42;;;;;;;0.33;0.33;;;;;;;;;;4987491;28;20189;-75
2022/12/30 10:19:26;;;;;;;0.33;0.33;;;;;;;;;;4962023;28;20256;-75
2022/12/30 10:21:58;;;;;;;0.40;0.40;;;;;;;;;;4973483;28;20178;-76
2022/12/30 10:32:21;;;;;;;0.40;0.40;;;;;;;;;;5311090;23;20666;-77
2022/12/30 10:34:49;;;;;;;0.40;0.40;;;;;;;;;;4993156;28;20185;-78
2022/12/30 10:37:24;;;;;;;0.30;0.30;;;;;;;;;;4994016;28;20177;-77
2022/12/30 10:39:51;;;;;;;0.40;0.40;;;;;;;;;;4992314;28;20216;-76
2022/12/30 10:42:36;;;;;;;0.40;0.40;;;;;;;;;;4991735;28;20248;-76
2022/12/30 10:45:13;;;;;;;0.40;0.40;;;;;;;;;;5020639;23;20224;-74
2022/12/30 10:47:47;;;;;;;0.50;0.50;;;;;;;;;;5017788;28;20184;-73
2022/12/30 10:50:25;;;;;;;0.40;0.40;;;;;;;;;;5017069;28;20169;-73
2022/12/30 10:52:52;;;;;;;0.40;0.40;;;;;;;;;;4997345;28;20189;-74
2022/12/30 10:58:10;;;;;;;0.33;0.33;;;;;;;;;;6031878;23;20187;-72
2022/12/30 11:00:40;;;;;;;0.40;0.40;;;;;;;;;;4987294;28;20196;-73
2022/12/30 11:03:13;;;;;;;0.30;0.30;;;;;;;;;;4991915;28;20181;-73
2022/12/30 11:05:39;;;;;;;0.30;0.30;;;;;;;;;;4992272;28;20500;-74
2022/12/30 11:08:17;;;;;;;0.30;0.30;;;;;;;;;;4991978;28;20180;-73
2022/12/30 11:18:31;;;;;;;0.40;0.40;;;;;;;;;;5661150;23;20561;-73
2022/12/30 11:20:58;;;;;;;0.60;0.60;;;;;;;;;;5025436;28;20238;-74
2022/12/30 11:23:31;;;;;;;0.40;0.40;;;;;;;;;;5031153;28;20523;-74
2022/12/30 11:25:58;;;;;;;0.50;0.50;;;;;;;;;;5031381;28;20176;-73
2022/12/30 11:28:26;;;;;;;0.47;0.47;;;;;;;;;;5023819;28;20195;-73
2022/12/30 11:30:52;;;;;;;0.60;0.60;;;;;;;;;;5011654;28;20181;-74
2022/12/30 11:33:39;;;;;;;0.50;0.50;;;;;;;;;;5010169;28;20178;-75
2022/12/30 11:36:12;;;;;;;0.50;0.50;;;;;;;;;;5011243;28;20184;-75
2022/12/30 11:38:43;;;;;;;0.70;0.70;;;;;;;;;;5011477;28;20303;-74
2022/12/30 11:41:18;;;;;;;0.70;0.70;;;;;;;;;;5011638;28;20199;-75
2022/12/30 11:43:44;;;;;;;0.53;0.53;;;;;;;;;;5010779;28;20179;-75
2022/12/30 11:46:12;;;;;;;0.60;0.60;;;;;;;;;;5011522;28;20172;-75
2022/12/30 11:48:39;;;;;;;0.70;0.70;;;;;;;;;;5011465;28;20193;-74
2022/12/30 11:51:14;;;;;;;0.67;0.67;;;;;;;;;;5011528;28;20176;-75
2022/12/30 11:53:40;;;;;;;0.70;0.70;;;;;;;;;;5011514;28;20177;-74
2022/12/30 11:56:06;;;;;;;0.60;0.60;;;;;;;;;;5015011;28;20192;-74
2022/12/30 11:58:34;;;;;;;0.60;0.60;;;;;;;;;;5014999;28;20227;-75
2022/12/30 12:01:10;;;;;;;0.63;0.63;;;;;;;;;;5015065;28;20172;-75
2022/12/30 12:03:47;;;;;;;0.70;0.70;;;;;;;;;;5013328;28;20214;-74
2022/12/30 12:06:13;;;;;;;0.50;0.50;;;;;;;;;;5014927;28;20180;-73
2022/12/30 12:09:00;;;;;;;0.47;0.47;;;;;;;;;;5013821;28;20426;-74
2022/12/30 12:11:30;;;;;;;0.57;0.57;;;;;;;;;;5014942;28;20617;-75
2022/12/30 12:13:59;;;;;;;0.50;0.50;;;;;;;;;;5013806;28;20262;-76
2022/12/30 12:16:43;;;;;;;0.70;0.70;;;;;;;;;;5014144;28;20223;-75
2022/12/30 12:19:16;;;;;;;0.60;0.60;;;;;;;;;;5014362;28;20280;-74
2022/12/30 12:21:43;;;;;;;0.60;0.60;;;;;;;;;;5014887;28;20207;-74
2022/12/30 12:24:30;;;;;;;0.57;0.57;;;;;;;;;;5013789;28;20640;-74
2022/12/30 12:27:06;;;;;;;0.50;0.50;;;;;;;;;;5014716;28;20184;-75
2022/12/30 12:29:34;;;;;;;0.63;0.63;;;;;;;;;;5014246;28;20779;-75
2022/12/30 12:32:03;;;;;;;0.70;0.70;;;;;;;;;;5013915;28;20180;-73
2022/12/30 12:34:52;;;;;;;0.67;0.67;;;;;;;;;;5014573;28;20177;-74
2022/12/30 12:37:30;;;;;;;0.50;0.50;;;;;;;;;;5014358;28;20176;-75
2022/12/30 12:40:14;;;;;;;0.60;0.60;;;;;;;;;;5014183;28;20726;-74
2022/12/30 12:42:46;;;;;;;0.70;0.70;;;;;;;;;;5013491;28;20204;-75
2022/12/30 12:45:12;;;;;;;0.60;0.60;;;;;;;;;;5013055;28;20184;-74
2022/12/30 12:47:40;;;;;;;0.63;0.63;;;;;;;;;;5013604;28;20202;-74
2022/12/30 12:50:18;;;;;;;0.80;0.80;;;;;;;;;;5013819;28;20183;-74
2022/12/30 12:53:02;;;;;;;0.60;0.60;;;;;;;;;;5013452;28;20184;-74
2022/12/30 12:55:47;;;;;;;0.60;0.60;;;;;;;;;;5011307;28;20886;-74
2022/12/30 12:58:13;;;;;;;0.70;0.70;;;;;;;;;;5011175;28;20758;-74
2022/12/30 13:00:53;;;;;;;0.70;0.70;;;;;;;;;;5012597;28;20188;-74
2022/12/30 13:03:38;;;;;;;0.70;0.70;;;;;;;;;;5011901;28;20525;-74
2022/12/30 13:06:11;;;;;;;0.70;0.70;;;;;;;;;;5010360;28;20191;-74
2022/12/30 13:08:44;;;;;;;0.60;0.60;;;;;;;;;;5012706;28;20278;-75
2022/12/30 13:11:10;;;;;;;0.60;0.60;;;;;;;;;;5013020;28;20177;-74
2022/12/30 13:13:51;;;;;;;0.60;0.60;;;;;;;;;;5013080;28;20180;-75
2022/12/30 13:16:19;;;;;;;0.60;0.60;;;;;;;;;;5013605;28;20664;-75
2022/12/30 13:18:46;;;;;;;0.60;0.60;;;;;;;;;;5013439;28;20220;-76
2022/12/30 13:21:18;;;;;;;0.73;0.73;;;;;;;;;;5013361;28;20269;-75
2022/12/30 13:23:48;;;;;;;0.53;0.53;;;;;;;;;;5012770;28;20184;-75
2022/12/30 13:26:14;;;;;;;0.70;0.70;;;;;;;;;;5013634;28;20180;-75
2022/12/30 13:28:43;;;;;;;0.60;0.60;;;;;;;;;;5013320;28;20251;-74
2022/12/30 13:31:09;;;;;;;0.60;0.60;;;;;;;;;;5013135;28;20834;-74
2022/12/30 13:33:44;;;;;;;0.60;0.60;;;;;;;;;;5012823;28;20212;-75
2022/12/30 13:36:19;;;;;;;0.70;0.70;;;;;;;;;;5013052;28;20210;-76
2022/12/30 13:38:57;;;;;;;0.63;0.63;;;;;;;;;;5012880;28;20224;-75
2022/12/30 13:41:32;;;;;;;0.73;0.73;;;;;;;;;;5013254;28;20235;-75
2022/12/30 13:43:59;;;;;;;0.60;0.60;;;;;;;;;;5012858;28;20180;-75
2022/12/30 13:46:28;;;;;;;0.63;0.63;;;;;;;;;;5013127;28;20177;-74
2022/12/30 13:49:14;;;;;;;0.70;0.70;;;;;;;;;;5013323;28;20228;-74
2022/12/30 13:51:40;;;;;;;0.67;0.67;;;;;;;;;;5005646;28;20213;-75
2022/12/30 13:54:08;;;;;;;0.70;0.70;;;;;;;;;;5012599;28;20176;-74
2022/12/30 13:56:38;;;;;;;0.70;0.70;;;;;;;;;;5012979;28;20185;-73
2022/12/30 13:59:05;;;;;;;0.70;0.70;;;;;;;;;;5012616;28;20590;-75
2022/12/30 14:01:39;;;;;;;0.70;0.70;;;;;;;;;;5012980;28;20188;-78
2022/12/30 14:04:11;;;;;;;0.70;0.70;;;;;;;;;;5012624;28;20176;-75
2022/12/30 14:06:40;;;;;;;0.60;0.60;;;;;;;;;;5012715;28;20177;-74
2022/12/30 14:09:14;;;;;;;0.67;0.67;;;;;;;;;;5012766;28;20200;-74
2022/12/30 14:12:00;;;;;;;0.60;0.60;;;;;;;;;;5010734;28;20234;-74
2022/12/30 14:14:26;;;;;;;0.73;0.73;;;;;;;;;;5007216;28;20180;-73
2022/12/30 14:16:54;;;;;;;0.70;0.70;;;;;;;;;;5012204;28;20200;-73
2022/12/30 14:19:40;;;;;;;0.70;0.70;;;;;;;;;;5011872;28;20247;-73
2022/12/30 14:22:06;;;;;;;0.70;0.70;;;;;;;;;;4980039;28;20535;-73
2022/12/30 14:24:52;;;;;;;0.70;0.70;;;;;;;;;;5010161;28;20191;-73
2022/12/30 14:27:37;;;;;;;0.70;0.70;;;;;;;;;;5011566;28;20223;-74
2022/12/30 14:30:05;;;;;;;0.60;0.60;;;;;;;;;;5011804;28;20231;-73
2022/12/30 14:32:31;;;;;;;0.60;0.60;;;;;;;;;;5011077;28;20188;-73
2022/12/30 14:34:58;;;;;;;0.63;0.63;;;;;;;;;;5011913;28;20195;-74
2022/12/30 14:37:25;;;;;;;0.60;0.60;;;;;;;;;;5011785;28;20277;-74
2022/12/30 14:39:51;;;;;;;0.70;0.70;;;;;;;;;;4991498;28;20225;-73
2022/12/30 14:42:22;;;;;;;0.60;0.60;;;;;;;;;;4991218;28;20185;-74
2022/12/30 14:44:52;;;;;;;0.73;0.73;;;;;;;;;;4991238;28;20276;-74
2022/12/30 14:47:36;;;;;;;0.70;0.70;;;;;;;;;;5002122;28;20263;-74
2022/12/30 14:50:02;;;;;;;0.63;0.63;;;;;;;;;;5011634;28;20180;-74
2022/12/30 14:52:29;;;;;;;0.70;0.70;;;;;;;;;;5011176;28;20177;-73
2022/12/30 14:55:09;;;;;;;0.70;0.70;;;;;;;;;;5011420;28;20187;-74
2022/12/30 14:57:36;;;;;;;0.77;0.77;;;;;;;;;;5011629;28;20329;-74
2022/12/30 15:00:09;;;;;;;0.60;0.60;;;;;;;;;;5011864;28;20282;-73
2022/12/30 15:02:44;;;;;;;0.70;0.70;;;;;;;;;;5011056;28;20204;-73
2022/12/30 15:05:14;;;;;;;0.67;0.67;;;;;;;;;;5011399;28;20699;-74
2022/12/30 15:07:41;;;;;;;0.60;0.60;;;;;;;;;;5009185;28;20204;-73
2022/12/30 15:10:22;;;;;;;0.70;0.70;;;;;;;;;;5011421;28;20536;-74
2022/12/30 16:43:50;;;;;;;0.77;0.77;;;;;;;;;;5549025;23;20287;-75
2022/12/30 16:46:18;;;;;;;0.60;0.60;;;;;;;;;;5012226;28;20582;-74
2022/12/30 16:48:44;;;;;;;0.70;0.70;;;;;;;;;;5012701;28;20676;-75
2022/12/30 16:51:17;;;;;;;0.70;0.70;;;;;;;;;;5013606;28;20295;-73
2022/12/30 16:53:43;;;;;;;0.60;0.60;;;;;;;;;;4993997;28;20669;-75
2022/12/30 16:56:09;;;;;;;0.60;0.60;;;;;;;;;;5078644;23;20208;-77
2022/12/30 16:58:35;;;;;;;0.60;0.60;;;;;;;;;;4998821;28;20704;-77
2022/12/30 17:01:01;;;;;;;0.70;0.70;;;;;;;;;;4999065;28;20181;-77
2022/12/30 17:03:27;;;;;;;0.67;0.67;;;;;;;;;;4992777;28;20204;-76
2022/12/30 17:05:54;;;;;;;0.77;0.77;;;;;;;;;;5007885;28;20254;-76
2022/12/30 17:08:28;;;;;;;0.70;0.70;;;;;;;;;;5011981;28;20231;-76
2022/12/30 17:10:57;;;;;;;0.80;0.80;;;;;;;;;;4993729;28;20181;-75
2022/12/30 17:13:34;;;;;;;0.70;0.70;;;;;;;;;;4999434;28;20279;-75
2022/12/30 17:16:00;;;;;;;0.50;0.50;;;;;;;;;;5013058;28;20267;-74
2022/12/30 17:18:26;;;;;;;0.60;0.60;;;;;;;;;;5013203;28;20210;-75
2022/12/30 17:20:56;;;;;;;0.57;0.57;;;;;;;;;;5013614;28;20180;-74
2022/12/30 17:23:29;;;;;;;0.63;0.63;;;;;;;;;;5013121;28;20246;-75
2022/12/30 17:25:55;;;;;;;0.60;0.60;;;;;;;;;;5013255;28;20427;-74
2022/12/30 17:28:21;;;;;;;0.60;0.60;;;;;;;;;;5013020;28;20180;-74
2022/12/30 17:30:47;;;;;;;0.70;0.70;;;;;;;;;;5012806;28;20184;-74
2022/12/30 17:33:12;;;;;;;0.70;0.70;;;;;;;;;;5012407;28;20207;-74
2022/12/30 17:35:38;;;;;;;0.60;0.60;;;;;;;;;;5012869;28;20192;-74
2022/12/30 17:38:05;;;;;;;0.60;0.60;;;;;;;;;;5012982;28;20540;-74
2022/12/30 17:40:31;;;;;;;0.70;0.70;;;;;;;;;;5012509;28;20235;-73
2022/12/30 17:42:57;;;;;;;0.60;0.60;;;;;;;;;;5012029;28;20212;-74
2022/12/30 17:45:24;;;;;;;0.60;0.60;;;;;;;;;;5011927;28;20899;-73